Decoded Metar for OINN (NOSHAHR in IRAN) (IATA:N/A) | Meteo·Mobile Aviation Weather
aviador You're here:

OINN Decoded Metar

NOSHAHR in IRAN
Report Time2018-11-19 05:00:00
UTC Time2018-11-19 05:44:59
Flight Rules mvfr MVFR
Wind090° at 02 kt
W.Decomp.*RWY 10: 1.9 kt HW 0.5 kt LCW
W.Rank090° ranks 4
Current wind is below 090° avg. (6.6)
Visibility9999 m
Phenomena:N/A
Clouds:Few CB 020 Hf
Broken 025 Hf
Expected CloudBase > 1,200 ft AGL from Temp-Dew spread
Ceiling2,500 ft
Temp14°C (ISA -1)
Dew Point11°C (82% RH)
AAT13.6°C
QNH1023 hPa
Density Alt-358 ft
Elevation-62 ft
Report Wrong Elevation
Raw Report
OINN 190500Z 09002KT 9999 FEW020CB BKN025 14/11 Q1023=

Extra information for OINN:More info

Metar Taf Metar & Taf Last 4 Metars F.Rules Stats Wind Profile Meteogram Temp Stats Airport Information Weather charts Add Link Nearby VenuesMetar ALERT Operation Metar Decoded Social comments